createdAt,value
2018-09-20T00:01:39.496Z,99.90
2018-09-20T00:04:08.058Z,99.90
2018-09-20T00:06:36.645Z,99.90
2018-09-20T00:09:06.841Z,99.90
2018-09-20T00:11:35.470Z,99.90
2018-09-20T00:14:04.098Z,99.90
2018-09-20T00:16:32.806Z,99.90
2018-09-20T00:19:01.376Z,99.90
2018-09-20T00:21:29.966Z,99.90
2018-09-20T00:23:58.539Z,99.90
2018-09-20T00:26:27.158Z,99.90
2018-09-20T00:28:55.697Z,99.90
2018-09-20T00:31:24.267Z,99.90
2018-09-20T00:33:52.859Z,99.90
2018-09-20T00:36:21.429Z,99.90
2018-09-20T00:38:49.973Z,99.90
2018-09-20T00:41:18.647Z,99.90
2018-09-20T00:43:47.202Z,99.90
2018-09-20T00:46:15.795Z,99.90
2018-09-20T00:48:44.339Z,99.90
2018-09-20T00:51:12.958Z,99.90
2018-09-20T00:53:41.513Z,99.90
2018-09-20T00:56:10.094Z,99.90
2018-09-20T00:58:38.668Z,99.90
2018-09-20T01:01:07.350Z,99.90
2018-09-20T01:03:35.910Z,99.90
2018-09-20T01:06:04.491Z,99.90
2018-09-20T01:08:33.048Z,99.90
2018-09-20T01:11:01.625Z,99.90
2018-09-20T01:13:30.216Z,99.90
2018-09-20T01:15:58.817Z,99.90
2018-09-20T01:18:27.347Z,99.90
2018-09-20T01:20:55.882Z,99.90
2018-09-20T01:23:24.542Z,99.90
2018-09-20T01:25:53.120Z,99.90
2018-09-20T01:28:21.714Z,99.90
2018-09-20T01:30:50.251Z,99.90
2018-09-20T01:33:25.387Z,99.90
2018-09-20T01:35:53.961Z,99.90
2018-09-20T01:38:22.531Z,99.90
2018-09-20T01:40:51.079Z,99.90
2018-09-20T01:43:19.646Z,99.90
2018-09-20T01:45:48.222Z,99.90
2018-09-20T01:48:16.789Z,99.90
2018-09-20T01:50:45.357Z,99.90
2018-09-20T01:53:13.938Z,99.90
2018-09-20T01:55:42.508Z,99.90
2018-09-20T01:58:11.090Z,99.90
2018-09-20T02:00:39.690Z,99.90
2018-09-20T02:03:08.274Z,99.90
2018-09-20T02:05:37.006Z,99.90
2018-09-20T02:08:05.740Z,99.90
2018-09-20T02:10:34.282Z,99.90
2018-09-20T02:13:03.081Z,99.90
2018-09-20T02:15:32.114Z,99.90
2018-09-20T02:18:00.691Z,99.90
2018-09-20T02:20:29.249Z,99.90
2018-09-20T02:22:57.827Z,99.90
2018-09-20T02:25:26.378Z,99.90
2018-09-20T02:27:55.152Z,99.90
2018-09-20T02:30:23.833Z,99.90
2018-09-20T02:32:52.463Z,99.90
2018-09-20T02:35:21.054Z,99.90
2018-09-20T02:37:49.601Z,99.90
2018-09-20T02:40:18.236Z,99.90
2018-09-20T02:42:46.771Z,99.90
2018-09-20T02:45:15.310Z,99.90
2018-09-20T02:47:43.917Z,99.90
2018-09-20T02:50:12.471Z,99.90
2018-09-20T02:52:40.975Z,99.90
2018-09-20T02:55:09.551Z,99.90
2018-09-20T02:57:38.064Z,99.90
2018-09-20T03:00:06.746Z,99.90
2018-09-20T03:02:38.145Z,99.90
2018-09-20T03:05:06.746Z,99.90
2018-09-20T03:07:35.314Z,99.90
2018-09-20T03:10:03.972Z,99.90
2018-09-20T03:12:32.537Z,99.90
2018-09-20T03:15:01.117Z,99.90
2018-09-20T03:17:29.699Z,99.90
2018-09-20T03:19:58.349Z,99.90
2018-09-20T03:22:26.914Z,99.90
2018-09-20T03:24:55.500Z,99.90
2018-09-20T03:27:24.054Z,99.90
2018-09-20T03:29:52.681Z,99.90
2018-09-20T03:32:21.263Z,99.90
2018-09-20T03:34:49.859Z,99.90
2018-09-20T03:37:18.425Z,99.90
2018-09-20T03:39:46.981Z,99.90
2018-09-20T03:42:15.565Z,99.90
2018-09-20T03:44:44.104Z,99.90
2018-09-20T03:47:12.701Z,99.90
2018-09-20T03:49:41.904Z,99.90
2018-09-20T03:52:10.549Z,99.90
2018-09-20T03:54:39.123Z,99.90
2018-09-20T03:57:07.759Z,99.90
2018-09-20T03:59:36.302Z,99.90
2018-09-20T04:02:04.877Z,99.90
2018-09-20T04:04:33.432Z,99.90
2018-09-20T04:07:02.020Z,99.90
2018-09-20T04:09:30.582Z,99.90
2018-09-20T04:11:59.139Z,99.90
2018-09-20T04:14:27.677Z,99.90
2018-09-20T04:16:56.198Z,99.90
2018-09-20T04:19:24.790Z,99.90
2018-09-20T04:21:53.432Z,99.90
2018-09-20T04:24:21.987Z,99.90
2018-09-20T04:26:50.522Z,99.90
2018-09-20T04:29:19.120Z,99.90
2018-09-20T04:31:47.718Z,99.90
2018-09-20T04:34:16.189Z,99.90
2018-09-20T04:36:44.723Z,99.90
2018-09-20T04:39:13.238Z,99.90
2018-09-20T04:41:41.769Z,99.90
2018-09-20T04:44:10.306Z,99.90
2018-09-20T04:46:38.862Z,99.90
2018-09-20T04:49:07.389Z,99.90
2018-09-20T04:51:35.905Z,99.90
2018-09-20T04:54:04.542Z,99.90
2018-09-20T04:56:33.033Z,99.90
2018-09-20T04:59:01.618Z,99.90
2018-09-20T05:01:30.203Z,99.90
2018-09-20T05:03:58.750Z,99.90
2018-09-20T05:06:27.353Z,99.90
2018-09-20T05:08:56.132Z,99.90
2018-09-20T05:11:24.745Z,99.90
2018-09-20T05:13:53.390Z,99.90
2018-09-20T05:16:21.982Z,99.90
2018-09-20T05:18:50.716Z,99.90
2018-09-20T05:21:19.401Z,99.90
2018-09-20T05:23:47.971Z,99.90
2018-09-20T05:26:16.577Z,99.90
2018-09-20T05:28:45.207Z,99.90
2018-09-20T05:31:13.894Z,99.90
2018-09-20T05:33:44.365Z,99.90
2018-09-20T05:36:12.970Z,99.90
2018-09-20T05:38:41.617Z,99.90
2018-09-20T05:41:10.343Z,99.90
2018-09-20T05:43:38.970Z,99.90
2018-09-20T05:46:07.652Z,99.90
2018-09-20T05:48:36.209Z,99.90
2018-09-20T05:51:04.839Z,99.90
2018-09-20T05:53:33.434Z,99.90
2018-09-20T05:56:02.097Z,99.90
2018-09-20T05:58:30.688Z,99.90
2018-09-20T06:00:59.394Z,99.90
2018-09-20T06:03:28.051Z,99.90
2018-09-20T06:05:56.654Z,99.90
2018-09-20T06:08:25.374Z,99.90
2018-09-20T06:10:54.026Z,99.90
2018-09-20T06:13:22.752Z,99.90
2018-09-20T06:15:51.420Z,99.90
2018-09-20T06:18:20.044Z,99.90
2018-09-20T06:20:48.707Z,99.90
2018-09-20T06:23:17.427Z,99.90
2018-09-20T06:25:46.052Z,99.90
2018-09-20T06:28:14.611Z,99.90
2018-09-20T06:30:43.230Z,99.90
2018-09-20T06:33:11.818Z,99.90
2018-09-20T06:35:40.478Z,99.90
2018-09-20T06:38:09.066Z,99.90
2018-09-20T06:40:37.703Z,99.90
2018-09-20T06:43:06.449Z,99.90
2018-09-20T06:45:35.082Z,99.90
2018-09-20T06:48:03.693Z,99.90
2018-09-20T06:50:32.365Z,99.90
2018-09-20T06:53:00.951Z,99.90
2018-09-20T06:55:29.546Z,99.90
2018-09-20T06:57:58.171Z,99.90
2018-09-20T07:00:26.797Z,99.90
2018-09-20T07:02:55.400Z,99.90
2018-09-20T07:05:24.061Z,99.90
2018-09-20T07:07:52.686Z,99.90
2018-09-20T07:10:21.326Z,99.90
2018-09-20T07:12:50.012Z,99.90
2018-09-20T07:15:18.669Z,99.90
2018-09-20T07:17:47.287Z,99.90
2018-09-20T07:20:15.911Z,99.90
2018-09-20T07:22:45.602Z,99.90
2018-09-20T07:25:14.421Z,99.90
2018-09-20T07:27:43.039Z,99.90
2018-09-20T07:30:11.665Z,99.90
2018-09-20T07:32:40.352Z,99.90
2018-09-20T07:35:09.263Z,99.90
2018-09-20T07:37:37.997Z,99.90
2018-09-20T07:40:06.642Z,99.90
2018-09-20T07:42:35.378Z,99.90
2018-09-20T07:45:04.104Z,99.90
2018-09-20T07:47:32.780Z,99.90
2018-09-20T07:50:01.369Z,99.90
2018-09-20T07:52:29.959Z,99.90
2018-09-20T07:54:58.569Z,99.90
2018-09-20T07:57:29.356Z,99.90
2018-09-20T07:59:59.536Z,99.90
2018-09-20T08:02:28.115Z,99.90
2018-09-20T08:04:56.704Z,99.90
2018-09-20T08:07:25.237Z,99.90
2018-09-20T08:09:53.818Z,99.90
2018-09-20T08:12:22.371Z,99.90
2018-09-20T08:14:51.045Z,99.90
2018-09-20T08:17:19.671Z,99.90
2018-09-20T08:19:48.337Z,99.90
2018-09-20T08:22:16.884Z,99.90
2018-09-20T08:24:45.799Z,99.90
2018-09-20T08:27:14.377Z,99.90
2018-09-20T08:29:42.981Z,99.90
2018-09-20T08:32:11.667Z,99.90
2018-09-20T08:34:40.246Z,99.90
2018-09-20T08:37:08.856Z,99.90
2018-09-20T08:39:37.395Z,99.90
2018-09-20T08:42:06.103Z,99.90
2018-09-20T08:44:34.619Z,99.90
2018-09-20T08:47:03.202Z,99.90
2018-09-20T08:49:31.978Z,99.90
2018-09-20T08:52:00.486Z,99.90
2018-09-20T08:54:29.062Z,99.90
2018-09-20T08:56:57.755Z,99.90
2018-09-20T08:59:26.271Z,99.90
2018-09-20T09:01:54.878Z,99.90
2018-09-20T09:04:23.513Z,99.90
2018-09-20T09:06:52.101Z,99.90
2018-09-20T09:09:20.695Z,99.90
2018-09-20T09:11:49.436Z,99.90
2018-09-20T09:14:18.089Z,99.90
2018-09-20T09:16:46.709Z,99.90
2018-09-20T09:19:15.311Z,99.90
2018-09-20T09:21:43.998Z,99.90
2018-09-20T09:24:12.775Z,99.90
2018-09-20T09:26:41.407Z,99.90
2018-09-20T09:29:10.027Z,99.90
2018-09-20T09:31:38.687Z,99.90
2018-09-20T09:34:07.342Z,99.90
2018-09-20T09:36:36.043Z,99.90
2018-09-20T09:39:07.054Z,99.90
2018-09-20T09:41:35.661Z,99.90
2018-09-20T09:44:04.355Z,99.90
2018-09-20T09:46:33.024Z,99.90
2018-09-20T09:49:01.716Z,99.90
2018-09-20T09:51:30.329Z,99.90
2018-09-20T09:53:59.060Z,99.90
2018-09-20T09:56:27.756Z,99.90
2018-09-20T09:58:56.418Z,99.30
2018-09-20T10:01:25.074Z,99.00
2018-09-20T10:03:53.711Z,99.40
2018-09-20T10:06:22.323Z,99.30
2018-09-20T10:08:50.896Z,99.50
2018-09-20T10:11:19.534Z,99.30
2018-09-20T10:13:48.258Z,98.60
2018-09-20T10:16:16.861Z,98.60
2018-09-20T10:18:45.518Z,98.80
2018-09-20T10:21:14.196Z,97.80
2018-09-20T10:23:42.898Z,98.10
2018-09-20T10:26:11.571Z,97.80
2018-09-20T10:28:40.190Z,98.00
2018-09-20T10:31:08.874Z,97.30
2018-09-20T10:33:37.511Z,97.50
2018-09-20T10:36:06.357Z,97.50
2018-09-20T10:38:35.072Z,97.50
2018-09-20T10:41:03.761Z,96.70
2018-09-20T10:43:32.385Z,97.30
2018-09-20T10:46:01.236Z,97.60
2018-09-20T10:48:29.837Z,96.90
2018-09-20T10:50:58.642Z,96.50
2018-09-20T10:53:27.594Z,96.10
2018-09-20T10:55:56.419Z,96.60
2018-09-20T10:58:25.194Z,96.70
2018-09-20T11:00:53.775Z,96.40
2018-09-20T11:03:22.450Z,96.60
2018-09-20T11:05:51.023Z,96.40
2018-09-20T11:08:19.582Z,96.50
2018-09-20T11:10:48.224Z,95.70
2018-09-20T11:13:16.823Z,96.10
2018-09-20T11:15:45.410Z,95.80
2018-09-20T11:18:13.931Z,95.50
2018-09-20T11:20:42.515Z,96.10
2018-09-20T11:23:11.123Z,96.10
2018-09-20T11:25:39.743Z,95.40
2018-09-20T11:28:08.291Z,95.20
2018-09-20T11:30:36.869Z,94.90
2018-09-20T11:33:05.489Z,95.00
2018-09-20T11:35:34.133Z,95.40
2018-09-20T11:38:02.682Z,95.70
2018-09-20T11:40:31.469Z,95.50
2018-09-20T11:43:00.298Z,95.70
2018-09-20T11:45:29.004Z,95.70
2018-09-20T11:47:57.693Z,95.20
2018-09-20T11:50:26.266Z,95.00
2018-09-20T11:52:54.830Z,94.30
2018-09-20T11:55:23.564Z,93.70
2018-09-20T11:57:52.163Z,94.30
2018-09-20T12:00:22.025Z,93.90
2018-09-20T12:02:52.357Z,94.40
2018-09-20T12:05:21.417Z,93.60
2018-09-20T12:07:50.081Z,94.10
2018-09-20T12:10:19.198Z,93.40
2018-09-20T12:12:48.180Z,93.40
2018-09-20T12:15:16.863Z,93.50
2018-09-20T12:17:45.620Z,93.20
2018-09-20T12:20:14.282Z,93.30
2018-09-20T12:22:42.975Z,92.80
2018-09-20T12:25:11.615Z,92.80
2018-09-20T12:27:40.234Z,93.60
2018-09-20T12:30:08.919Z,92.70
2018-09-20T12:32:37.552Z,92.50
2018-09-20T12:35:06.151Z,92.60
2018-09-20T12:37:36.397Z,92.50
2018-09-20T12:40:06.515Z,92.80
2018-09-20T12:42:35.163Z,92.60
2018-09-20T12:45:03.846Z,92.80
2018-09-20T12:47:33.037Z,92.60
2018-09-20T12:50:01.599Z,92.90
2018-09-20T12:52:30.263Z,92.10
2018-09-20T12:54:58.843Z,92.20
2018-09-20T12:57:27.485Z,92.00
2018-09-20T12:59:56.195Z,91.70
2018-09-20T13:02:24.886Z,91.30
2018-09-20T13:04:53.513Z,91.30
2018-09-20T13:07:22.153Z,91.50
2018-09-20T13:09:50.775Z,91.20
2018-09-20T13:12:19.503Z,91.70
2018-09-20T13:14:48.194Z,91.40
2018-09-20T13:17:17.127Z,91.20
2018-09-20T13:19:45.689Z,90.80
2018-09-20T13:22:14.587Z,90.70
2018-09-20T13:24:43.391Z,90.40
2018-09-20T13:27:11.936Z,90.60
2018-09-20T13:29:40.598Z,90.40
2018-09-20T13:32:09.194Z,90.80
2018-09-20T13:34:37.968Z,90.90
2018-09-20T13:37:06.658Z,89.20
2018-09-20T13:39:35.361Z,89.10
2018-09-20T13:42:04.039Z,89.90
2018-09-20T13:44:32.638Z,90.40
2018-09-20T13:47:01.287Z,90.00
2018-09-20T13:49:29.962Z,89.60
2018-09-20T13:51:58.660Z,88.60
2018-09-20T13:54:27.261Z,89.40
2018-09-20T13:56:55.914Z,88.50
2018-09-20T13:59:24.625Z,88.30
2018-09-20T14:01:53.300Z,87.00
2018-09-20T14:04:22.222Z,85.70
2018-09-20T14:06:50.866Z,84.00
2018-09-20T14:09:19.646Z,86.50
2018-09-20T14:11:48.190Z,86.20
2018-09-20T14:14:16.825Z,84.90
2018-09-20T14:16:45.381Z,85.00
2018-09-20T14:19:13.967Z,85.90
2018-09-20T14:21:42.570Z,86.70
2018-09-20T14:24:11.159Z,86.40
2018-09-20T14:26:39.890Z,86.20
2018-09-20T14:29:08.564Z,85.80
2018-09-20T14:31:37.108Z,84.20
2018-09-20T14:34:05.670Z,84.10
2018-09-20T14:36:34.296Z,85.00
2018-09-20T14:39:02.978Z,85.80
2018-09-20T14:41:31.559Z,84.50
2018-09-20T14:44:00.127Z,85.60
2018-09-20T14:46:28.690Z,84.70
2018-09-20T14:48:57.219Z,84.30
2018-09-20T14:51:25.784Z,83.60
2018-09-20T14:53:54.314Z,84.20
2018-09-20T14:56:22.881Z,83.40
2018-09-20T14:58:51.416Z,83.30
2018-09-20T15:01:20.039Z,83.60
2018-09-20T15:03:49.748Z,83.90
2018-09-20T15:06:19.407Z,83.30
2018-09-20T15:08:48.127Z,82.90
2018-09-20T15:11:16.802Z,83.60
2018-09-20T15:13:45.464Z,83.00
2018-09-20T15:16:14.147Z,81.90
2018-09-20T15:18:42.721Z,81.60
2018-09-20T15:21:11.399Z,80.80
2018-09-20T15:23:40.034Z,81.50
2018-09-20T15:26:08.667Z,80.30
2018-09-20T15:28:37.315Z,80.60
2018-09-20T15:31:06.187Z,78.90
2018-09-20T15:33:34.839Z,78.50
2018-09-20T15:36:03.446Z,78.60
2018-09-20T15:38:32.065Z,79.60
2018-09-20T15:41:38.973Z,79.40
2018-09-20T15:44:07.766Z,79.00
2018-09-20T15:46:36.433Z,78.80
2018-09-20T15:49:05.268Z,78.70
2018-09-20T15:51:33.909Z,77.50
2018-09-20T15:54:02.538Z,77.20
2018-09-20T15:56:31.306Z,78.10
2018-09-20T15:58:59.878Z,77.70
2018-09-20T16:01:28.484Z,77.10
2018-09-20T16:03:57.032Z,77.40
2018-09-20T16:06:25.559Z,77.80
2018-09-20T16:08:54.123Z,77.60
2018-09-20T16:11:22.638Z,76.00
2018-09-20T16:13:51.271Z,74.90
2018-09-20T16:16:19.807Z,74.10
2018-09-20T16:18:48.357Z,73.10
2018-09-20T16:21:16.924Z,73.70
2018-09-20T16:23:45.476Z,73.70
2018-09-20T16:26:14.014Z,74.30
2018-09-20T16:28:56.997Z,74.60
2018-09-20T16:31:39.205Z,74.60
2018-09-20T16:34:31.328Z,74.60
2018-09-20T16:37:10.942Z,74.50
2018-09-20T16:39:40.416Z,74.00
2018-09-20T16:42:09.701Z,77.10
2018-09-20T16:44:38.285Z,76.30
2018-09-20T16:47:06.917Z,77.90
2018-09-20T16:49:35.518Z,78.20
2018-09-20T16:52:04.090Z,78.40
2018-09-20T16:54:32.632Z,79.70
2018-09-20T16:57:01.209Z,78.40
2018-09-20T16:59:29.781Z,79.20
2018-09-20T17:01:58.346Z,80.00
2018-09-20T17:04:26.943Z,81.70
2018-09-20T17:06:55.451Z,82.50
2018-09-20T17:09:24.030Z,83.50
2018-09-20T17:11:52.586Z,83.70
2018-09-20T17:14:21.137Z,84.00
2018-09-20T17:16:49.740Z,84.70
2018-09-20T17:19:18.302Z,85.30
2018-09-20T17:21:46.845Z,86.00
2018-09-20T17:24:15.382Z,85.30
2018-09-20T17:26:43.929Z,85.70
2018-09-20T17:29:12.470Z,87.20
2018-09-20T17:31:40.985Z,86.90
2018-09-20T17:34:09.504Z,86.80
2018-09-20T17:36:38.306Z,87.10
2018-09-20T17:39:10.395Z,86.70
2018-09-20T17:41:39.836Z,88.50
2018-09-20T17:44:09.104Z,88.20
2018-09-20T17:46:37.665Z,87.10
2018-09-20T17:49:06.304Z,88.10
2018-09-20T17:51:35.316Z,88.00
2018-09-20T17:54:04.011Z,87.50
2018-09-20T17:56:33.024Z,88.50
2018-09-20T17:59:01.874Z,88.80
2018-09-20T18:01:30.491Z,87.80
2018-09-20T18:03:59.058Z,87.50
2018-09-20T18:06:27.641Z,89.20
2018-09-20T18:08:56.195Z,88.10
2018-09-20T18:11:24.802Z,87.80
2018-09-20T18:13:53.408Z,88.80
2018-09-20T18:16:21.993Z,89.00
2018-09-20T18:18:50.610Z,89.20
2018-09-20T18:21:19.195Z,90.00
2018-09-20T18:23:47.782Z,89.80
2018-09-20T18:26:16.334Z,90.10
2018-09-20T18:28:44.932Z,90.60
2018-09-20T18:31:13.498Z,90.60
2018-09-20T18:33:42.073Z,90.90
2018-09-20T18:36:10.645Z,91.20
2018-09-20T18:38:39.234Z,91.00
2018-09-20T18:41:07.794Z,91.10
2018-09-20T18:43:36.416Z,91.50
2018-09-20T18:46:05.038Z,90.20
2018-09-20T18:48:33.613Z,90.20
2018-09-20T18:51:02.186Z,90.80
2018-09-20T18:53:30.770Z,91.40
2018-09-20T18:55:59.326Z,90.80
2018-09-20T18:58:27.922Z,90.60
2018-09-20T19:00:56.531Z,90.70
2018-09-20T19:03:25.129Z,91.00
2018-09-20T19:05:53.692Z,91.80
2018-09-20T19:08:22.279Z,92.30
2018-09-20T19:10:50.964Z,91.80
2018-09-20T19:13:19.585Z,91.70
2018-09-20T19:15:48.198Z,91.70
2018-09-20T19:18:16.822Z,92.00
2018-09-20T19:20:45.448Z,92.10
2018-09-20T19:23:14.191Z,91.60
2018-09-20T19:25:42.813Z,92.50
2018-09-20T19:28:11.375Z,92.90
2018-09-20T19:30:40.006Z,92.50
2018-09-20T19:33:08.618Z,92.80
2018-09-20T19:35:37.213Z,92.70
2018-09-20T19:38:05.857Z,92.80
2018-09-20T19:40:34.443Z,93.20
2018-09-20T19:43:03.007Z,92.90
2018-09-20T19:45:31.607Z,92.90
2018-09-20T19:48:00.162Z,93.00
2018-09-20T19:50:28.786Z,93.00
2018-09-20T19:52:57.360Z,93.20
2018-09-20T19:55:25.935Z,93.40
2018-09-20T19:57:54.481Z,93.50
2018-09-20T20:00:23.115Z,94.00
2018-09-20T20:02:51.940Z,94.30
2018-09-20T20:05:20.537Z,94.10
2018-09-20T20:07:49.166Z,94.20
2018-09-20T20:10:17.789Z,94.40
2018-09-20T20:12:46.374Z,95.30
2018-09-20T20:15:14.958Z,94.80
2018-09-20T20:17:43.514Z,95.10
2018-09-20T20:20:12.118Z,94.90
2018-09-20T20:22:40.687Z,94.90
2018-09-20T20:25:09.643Z,95.20
2018-09-20T20:27:38.292Z,95.50
2018-09-20T20:30:06.960Z,95.60
2018-09-20T20:32:35.636Z,95.40
2018-09-20T20:35:04.286Z,95.50
2018-09-20T20:37:32.845Z,95.70
2018-09-20T20:40:01.430Z,95.70
2018-09-20T20:42:30.077Z,95.80
2018-09-20T20:44:58.636Z,95.50
2018-09-20T20:47:27.221Z,95.30
2018-09-20T20:49:55.793Z,95.50
2018-09-20T20:52:24.446Z,95.70
2018-09-20T20:54:53.027Z,95.80
2018-09-20T20:57:21.639Z,96.10
2018-09-20T20:59:50.244Z,96.10
2018-09-20T21:02:18.795Z,96.60
2018-09-20T21:04:47.329Z,96.20
2018-09-20T21:07:15.865Z,96.10
2018-09-20T21:09:44.354Z,96.50
2018-09-20T21:12:12.962Z,97.10
2018-09-20T21:14:41.575Z,97.30
2018-09-20T21:17:10.096Z,96.90
2018-09-20T21:19:38.561Z,97.40
2018-09-20T21:22:07.175Z,97.40
2018-09-20T21:24:35.735Z,97.70
2018-09-20T21:27:04.311Z,97.90
2018-09-20T21:29:32.822Z,98.10
2018-09-20T21:32:01.388Z,98.20
2018-09-20T21:34:29.906Z,98.40
2018-09-20T21:36:58.440Z,98.70
2018-09-20T21:39:27.005Z,99.00
2018-09-20T21:41:55.516Z,98.80
2018-09-20T21:44:24.036Z,98.70
2018-09-20T21:46:52.562Z,98.10
2018-09-20T21:49:21.098Z,98.10
2018-09-20T21:51:49.622Z,97.80
2018-09-20T21:54:18.161Z,98.00
2018-09-20T21:56:46.715Z,97.90
2018-09-20T21:59:15.304Z,98.10
2018-09-20T22:01:49.178Z,98.20
2018-09-20T22:04:17.683Z,98.00
2018-09-20T22:06:46.175Z,98.60
2018-09-20T22:09:14.725Z,99.00
2018-09-20T22:11:43.217Z,98.90
2018-09-20T22:14:11.763Z,99.50
2018-09-20T22:16:40.306Z,99.20
2018-09-20T22:19:08.823Z,99.00
2018-09-20T22:21:37.330Z,99.10
2018-09-20T22:24:05.863Z,99.50
2018-09-20T22:26:34.402Z,99.40
2018-09-20T22:29:02.955Z,99.10
2018-09-20T22:31:31.458Z,99.40
2018-09-20T22:33:59.992Z,99.10
2018-09-20T22:36:28.481Z,99.30
2018-09-20T22:38:56.978Z,99.30
2018-09-20T22:41:25.489Z,99.50
2018-09-20T22:43:54.054Z,99.90
2018-09-20T22:46:22.572Z,99.90
2018-09-20T22:48:51.086Z,99.90
2018-09-20T22:51:19.639Z,99.90
2018-09-20T22:53:48.149Z,99.90
2018-09-20T22:56:16.659Z,99.90
2018-09-20T22:58:45.157Z,99.90
2018-09-20T23:01:16.861Z,99.90
2018-09-20T23:03:45.934Z,99.90
2018-09-20T23:06:14.496Z,99.90
2018-09-20T23:08:43.095Z,99.90
2018-09-20T23:11:11.670Z,99.90
2018-09-20T23:13:40.294Z,99.90
2018-09-20T23:16:08.888Z,99.90
2018-09-20T23:18:37.506Z,99.90
2018-09-20T23:21:06.236Z,99.90
2018-09-20T23:23:34.798Z,99.90
2018-09-20T23:26:03.384Z,99.90
2018-09-20T23:28:31.945Z,99.90
2018-09-20T23:31:00.535Z,99.90
2018-09-20T23:33:29.081Z,99.90
2018-09-20T23:35:57.659Z,99.90
2018-09-20T23:38:26.200Z,99.90
2018-09-20T23:40:54.796Z,99.90
2018-09-20T23:43:23.340Z,99.90
2018-09-20T23:45:51.884Z,99.90
2018-09-20T23:48:20.488Z,99.90
2018-09-20T23:50:49.086Z,99.90
2018-09-20T23:53:17.673Z,99.90
2018-09-20T23:55:46.220Z,99.90
2018-09-20T23:58:14.793Z,99.90
